createdAt,value
2018-09-02T00:00:49.213Z,7.40
2018-09-02T00:03:17.572Z,7.30
2018-09-02T00:05:45.765Z,7.40
2018-09-02T00:08:14.043Z,7.40
2018-09-02T00:10:42.342Z,7.30
2018-09-02T00:13:10.652Z,7.20
2018-09-02T00:15:38.944Z,7.20
2018-09-02T00:18:07.204Z,7.20
2018-09-02T00:20:35.483Z,7.20
2018-09-02T00:23:03.720Z,7.10
2018-09-02T00:25:31.910Z,7.20
2018-09-02T00:28:01.376Z,7.20
2018-09-02T00:30:29.664Z,7.10
2018-09-02T00:32:57.956Z,7.10
2018-09-02T00:35:26.242Z,7.00
2018-09-02T00:37:54.532Z,7.00
2018-09-02T00:40:22.805Z,7.00
2018-09-02T00:42:51.192Z,7.00
2018-09-02T00:45:19.447Z,6.90
2018-09-02T00:47:47.621Z,6.90
2018-09-02T00:50:15.859Z,7.00
2018-09-02T00:52:44.147Z,7.00
2018-09-02T00:55:12.354Z,6.90
2018-09-02T00:57:40.577Z,6.90
2018-09-02T01:00:08.807Z,6.90
2018-09-02T01:02:37.053Z,6.90
2018-09-02T01:05:05.445Z,6.90
2018-09-02T01:07:33.627Z,6.80
2018-09-02T01:10:01.872Z,6.80
2018-09-02T01:12:30.135Z,6.80
2018-09-02T01:14:58.533Z,6.70
2018-09-02T01:17:26.846Z,6.70
2018-09-02T01:19:55.074Z,6.70
2018-09-02T01:22:23.332Z,6.90
2018-09-02T01:24:51.562Z,6.80
2018-09-02T01:27:19.743Z,6.70
2018-09-02T01:29:47.952Z,6.70
2018-09-02T01:32:16.175Z,6.60
2018-09-02T01:34:44.330Z,6.60
2018-09-02T01:37:12.556Z,6.60
2018-09-02T01:39:40.861Z,6.50
2018-09-02T01:42:09.100Z,6.50
2018-09-02T01:44:37.297Z,6.50
2018-09-02T01:47:05.511Z,6.50
2018-09-02T01:49:33.675Z,6.50
2018-09-02T01:52:01.884Z,6.50
2018-09-02T01:54:30.144Z,6.40
2018-09-02T01:56:58.700Z,6.40
2018-09-02T01:59:26.931Z,6.40
2018-09-02T02:01:55.148Z,6.40
2018-09-02T02:04:23.497Z,6.30
2018-09-02T02:06:51.779Z,6.30
2018-09-02T02:09:20.000Z,6.30
2018-09-02T02:11:48.307Z,6.30
2018-09-02T02:14:16.553Z,6.30
2018-09-02T02:16:44.772Z,6.30
2018-09-02T02:19:12.956Z,6.30
2018-09-02T02:21:41.149Z,6.30
2018-09-02T02:24:09.345Z,6.30
2018-09-02T02:26:37.587Z,6.20
2018-09-02T02:29:05.790Z,6.20
2018-09-02T02:31:34.059Z,6.20
2018-09-02T02:34:02.319Z,6.10
2018-09-02T02:36:30.547Z,6.10
2018-09-02T02:38:58.874Z,6.10
2018-09-02T02:41:27.060Z,6.10
2018-09-02T02:43:55.380Z,6.30
2018-09-02T02:46:23.585Z,6.20
2018-09-02T02:48:51.792Z,6.10
2018-09-02T02:51:20.013Z,6.10
2018-09-02T02:53:48.268Z,6.10
2018-09-02T02:56:16.461Z,6.10
2018-09-02T02:58:44.716Z,6.10
2018-09-02T03:01:12.879Z,6.20
2018-09-02T03:03:41.117Z,6.20
2018-09-02T03:06:09.323Z,6.20
2018-09-02T03:08:37.568Z,6.10
2018-09-02T03:11:05.779Z,6.00
2018-09-02T03:13:33.984Z,6.10
2018-09-02T03:16:02.188Z,6.00
2018-09-02T03:18:30.380Z,6.10
2018-09-02T03:20:58.756Z,6.20
2018-09-02T03:23:26.958Z,6.10
2018-09-02T03:25:55.182Z,6.10
2018-09-02T03:28:23.508Z,6.00
2018-09-02T03:30:51.791Z,6.00
2018-09-02T03:33:20.020Z,5.90
2018-09-02T03:35:48.191Z,6.00
2018-09-02T03:38:16.392Z,5.90
2018-09-02T03:40:44.625Z,5.90
2018-09-02T03:43:12.897Z,5.90
2018-09-02T03:45:41.116Z,5.80
2018-09-02T03:48:09.371Z,5.80
2018-09-02T03:50:37.568Z,5.70
2018-09-02T03:53:05.878Z,5.90
2018-09-02T03:55:34.135Z,5.70
2018-09-02T03:58:02.479Z,5.70
2018-09-02T04:00:30.737Z,5.60
2018-09-02T04:02:59.060Z,5.80
2018-09-02T04:05:27.259Z,5.80
2018-09-02T04:07:55.479Z,5.70
2018-09-02T04:10:41.064Z,5.70
2018-09-02T04:13:09.298Z,5.60
2018-09-02T04:15:37.516Z,5.80
2018-09-02T04:18:06.231Z,5.70
2018-09-02T04:20:36.372Z,5.60
2018-09-02T04:23:05.651Z,5.60
2018-09-02T04:25:34.236Z,5.60
2018-09-02T04:28:02.434Z,5.50
2018-09-02T04:30:30.772Z,5.50
2018-09-02T04:32:59.704Z,5.50
2018-09-02T04:35:27.909Z,5.60
2018-09-02T04:37:56.103Z,5.50
2018-09-02T04:40:24.307Z,5.50
2018-09-02T04:42:52.533Z,5.40
2018-09-02T04:45:20.766Z,5.30
2018-09-02T04:47:48.894Z,5.40
2018-09-02T04:50:21.204Z,5.30
2018-09-02T04:52:49.432Z,5.40
2018-09-02T04:55:17.628Z,5.40
2018-09-02T04:57:46.035Z,5.40
2018-09-02T05:00:14.261Z,5.40
2018-09-02T05:02:42.413Z,5.40
2018-09-02T05:05:10.838Z,5.50
2018-09-02T05:07:39.050Z,5.70
2018-09-02T05:10:07.359Z,5.80
2018-09-02T05:12:35.622Z,5.90
2018-09-02T05:15:03.928Z,5.90
2018-09-02T05:17:33.029Z,5.90
2018-09-02T05:20:01.314Z,5.90
2018-09-02T05:22:29.902Z,5.90
2018-09-02T05:24:58.315Z,5.90
2018-09-02T05:27:27.359Z,6.00
2018-09-02T05:29:55.559Z,6.10
2018-09-02T05:32:23.816Z,6.30
2018-09-02T05:34:52.009Z,6.50
2018-09-02T05:37:20.235Z,6.70
2018-09-02T05:39:48.475Z,6.70
2018-09-02T05:42:20.491Z,6.80
2018-09-02T05:44:48.717Z,6.90
2018-09-02T05:47:24.477Z,7.20
2018-09-02T05:49:52.651Z,7.30
2018-09-02T05:52:20.979Z,7.50
2018-09-02T05:55:01.403Z,7.70
2018-09-02T05:57:29.596Z,7.80
2018-09-02T05:59:57.826Z,7.80
2018-09-02T06:02:26.012Z,8.00
2018-09-02T06:04:59.207Z,8.30
2018-09-02T06:07:27.491Z,8.60
2018-09-02T06:09:56.083Z,9.30
2018-09-02T06:12:24.198Z,9.50
2018-09-02T06:14:52.769Z,9.60
2018-09-02T06:17:20.994Z,9.40
2018-09-02T06:19:49.034Z,9.50
2018-09-02T06:22:17.171Z,10.00
2018-09-02T06:24:45.296Z,10.70
2018-09-02T06:27:13.626Z,11.90
2018-09-02T06:35:36.057Z,14.70
2018-09-02T06:38:04.142Z,15.20
2018-09-02T06:40:33.092Z,15.50
2018-09-02T06:43:01.216Z,16.10
2018-09-02T06:45:29.335Z,17.20
2018-09-02T06:47:57.479Z,17.20
2018-09-02T06:50:25.590Z,17.40
2018-09-02T06:52:55.214Z,16.60
2018-09-02T06:55:23.489Z,16.00
2018-09-02T06:57:55.530Z,13.90
2018-09-02T07:00:23.951Z,14.20
2018-09-02T07:02:56.999Z,14.30
2018-09-02T07:05:25.318Z,14.60
2018-09-02T07:07:53.533Z,15.10
2018-09-02T07:10:21.627Z,15.20
2018-09-02T07:12:57.262Z,16.40
2018-09-02T07:15:29.145Z,17.00
2018-09-02T07:17:57.318Z,17.10
2018-09-02T07:20:25.434Z,16.60
2018-09-02T07:22:57.698Z,16.60
2018-09-02T07:25:25.963Z,17.90
2018-09-02T07:27:54.222Z,19.30
2018-09-02T07:30:22.334Z,19.80
2018-09-02T07:32:50.465Z,20.60
2018-09-02T07:35:22.109Z,21.30
2018-09-02T07:37:51.601Z,21.30
2018-09-02T07:40:19.756Z,21.90
2018-09-02T07:42:47.875Z,22.40
2018-09-02T07:45:17.109Z,23.00
2018-09-02T07:47:45.263Z,23.30
2018-09-02T07:50:13.758Z,23.50
2018-09-02T07:52:41.899Z,23.70
2018-09-02T07:55:10.671Z,24.60
2018-09-02T07:57:38.843Z,24.60
2018-09-02T08:00:08.340Z,24.80
2018-09-02T08:02:36.807Z,25.00
2018-09-02T08:05:04.878Z,24.90
2018-09-02T08:07:35.947Z,25.00
2018-09-02T08:10:04.652Z,24.70
2018-09-02T08:12:32.829Z,23.50
2018-09-02T08:15:04.754Z,23.40
2018-09-02T08:17:32.878Z,24.20
2018-09-02T08:20:01.140Z,25.40
2018-09-02T08:22:29.714Z,25.40
2018-09-02T08:24:57.961Z,26.30
2018-09-02T08:27:26.345Z,26.00
2018-09-02T08:29:54.635Z,26.30
2018-09-02T08:32:24.261Z,26.60
2018-09-02T08:34:52.532Z,25.80
2018-09-02T08:37:20.692Z,25.50
2018-09-02T08:39:51.351Z,24.90
2018-09-02T08:42:19.577Z,24.10
2018-09-02T08:44:50.605Z,24.00
2018-09-02T08:47:18.721Z,24.20
2018-09-02T08:49:46.835Z,25.40
2018-09-02T08:52:15.355Z,25.40
2018-09-02T08:54:43.870Z,24.90
2018-09-02T08:57:12.035Z,24.60
2018-09-02T08:59:41.356Z,24.90
2018-09-02T09:02:09.662Z,25.40
2018-09-02T09:04:37.898Z,25.70
2018-09-02T09:07:07.894Z,26.40
2018-09-02T09:09:36.153Z,26.70
2018-09-02T09:12:04.317Z,25.80
2018-09-02T09:14:34.667Z,25.70
2018-09-02T09:17:03.389Z,25.30
2018-09-02T09:19:32.836Z,25.40
2018-09-02T09:22:00.997Z,24.80
2018-09-02T09:24:29.127Z,24.60
2018-09-02T09:26:57.426Z,24.60
2018-09-02T09:29:25.559Z,23.70
2018-09-02T09:31:53.703Z,23.80
2018-09-02T09:34:21.839Z,24.10
2018-09-02T09:36:50.008Z,24.50
2018-09-02T09:39:18.147Z,24.50
2018-09-02T09:41:46.278Z,24.10
2018-09-02T09:44:14.794Z,23.40
2018-09-02T09:46:43.053Z,22.60
2018-09-02T09:49:12.112Z,22.50
2018-09-02T09:51:40.971Z,22.50
2018-09-02T09:54:09.391Z,22.70
2018-09-02T09:56:38.088Z,22.90
2018-09-02T09:59:06.304Z,22.90
2018-09-02T10:01:34.587Z,22.60
2018-09-02T10:04:03.486Z,22.80
2018-09-02T10:06:31.646Z,22.50
2018-09-02T10:09:00.289Z,22.50
2018-09-02T10:11:28.670Z,22.40
2018-09-02T10:13:56.907Z,22.70
2018-09-02T10:16:25.039Z,22.90
2018-09-02T10:18:53.662Z,22.90
2018-09-02T10:21:21.910Z,22.60
2018-09-02T10:23:50.019Z,22.50
2018-09-02T10:26:18.303Z,22.40
2018-09-02T10:28:46.601Z,22.60
2018-09-02T10:31:15.886Z,22.30
2018-09-02T10:33:43.999Z,22.30
2018-09-02T10:36:12.186Z,22.20
2018-09-02T10:38:40.312Z,22.30
2018-09-02T10:41:08.522Z,22.20
2018-09-02T10:43:36.666Z,22.40
2018-09-02T10:46:04.814Z,22.30
2018-09-02T10:48:32.979Z,22.40
2018-09-02T10:51:01.117Z,22.40
2018-09-02T10:53:29.242Z,22.70
2018-09-02T10:55:57.469Z,22.60
2018-09-02T10:58:25.595Z,22.70
2018-09-02T11:00:53.734Z,22.70
2018-09-02T11:03:23.371Z,22.60
2018-09-02T11:05:51.671Z,22.30
2018-09-02T11:08:19.986Z,22.00
2018-09-02T11:10:48.117Z,21.90
2018-09-02T11:13:16.261Z,22.00
2018-09-02T11:15:44.362Z,21.90
2018-09-02T11:18:12.514Z,21.90
2018-09-02T11:20:40.818Z,21.80
2018-09-02T11:23:09.047Z,21.70
2018-09-02T11:25:37.198Z,21.70
2018-09-02T11:28:05.878Z,21.50
2018-09-02T11:30:34.267Z,21.60
2018-09-02T11:33:02.424Z,21.50
2018-09-02T11:35:30.611Z,21.50
2018-09-02T11:37:58.815Z,21.40
2018-09-02T11:40:27.027Z,21.30
2018-09-02T11:42:55.567Z,21.20
2018-09-02T11:45:23.736Z,21.10
2018-09-02T11:47:51.860Z,21.00
2018-09-02T11:50:19.983Z,20.90
2018-09-02T11:52:48.530Z,20.90
2018-09-02T11:55:16.664Z,21.00
2018-09-02T11:57:44.828Z,21.00
2018-09-02T12:00:12.938Z,21.00
2018-09-02T12:02:41.070Z,21.00
2018-09-02T12:05:09.300Z,21.10
2018-09-02T12:07:37.435Z,21.20
2018-09-02T12:10:10.640Z,21.10
2018-09-02T12:12:39.001Z,21.10
2018-09-02T12:15:07.179Z,21.10
2018-09-02T12:17:35.332Z,21.10
2018-09-02T12:20:03.503Z,21.10
2018-09-02T12:22:31.699Z,21.10
2018-09-02T12:25:00.019Z,21.00
2018-09-02T12:27:28.250Z,21.00
2018-09-02T12:29:56.429Z,21.00
2018-09-02T12:32:24.573Z,21.10
2018-09-02T12:34:52.713Z,21.20
2018-09-02T12:37:20.846Z,21.30
2018-09-02T12:39:50.056Z,21.30
2018-09-02T12:42:18.247Z,21.30
2018-09-02T12:44:46.312Z,21.30
2018-09-02T12:47:19.582Z,21.10
2018-09-02T12:49:47.746Z,21.20
2018-09-02T12:52:15.920Z,21.50
2018-09-02T12:54:44.142Z,21.50
2018-09-02T12:57:12.377Z,21.50
2018-09-02T12:59:40.582Z,21.40
2018-09-02T13:02:08.728Z,21.50
2018-09-02T13:04:36.862Z,21.50
2018-09-02T13:07:05.176Z,21.50
2018-09-02T13:09:33.340Z,21.40
2018-09-02T13:12:01.439Z,21.50
2018-09-02T13:14:29.588Z,21.50
2018-09-02T13:16:57.731Z,21.40
2018-09-02T13:19:25.871Z,21.40
2018-09-02T13:21:54.008Z,21.40
2018-09-02T13:24:22.171Z,21.50
2018-09-02T13:26:51.385Z,21.60
2018-09-02T13:29:19.575Z,21.60
2018-09-02T13:31:47.795Z,21.70
2018-09-02T13:34:15.927Z,21.70
2018-09-02T13:36:44.068Z,21.70
2018-09-02T13:39:12.213Z,21.70
2018-09-02T13:41:40.551Z,21.60
2018-09-02T13:44:09.859Z,21.60
2018-09-02T13:46:38.004Z,21.70
2018-09-02T13:49:06.243Z,21.70
2018-09-02T13:51:34.482Z,21.50
2018-09-02T13:54:10.315Z,21.50
2018-09-02T13:56:38.688Z,21.30
2018-09-02T13:59:06.838Z,21.20
2018-09-02T14:01:34.968Z,21.10
2018-09-02T14:04:03.103Z,21.00
2018-09-02T14:06:31.243Z,21.00
2018-09-02T14:08:59.472Z,21.00
2018-09-02T14:11:27.621Z,20.90
2018-09-02T14:13:55.762Z,20.80
2018-09-02T14:16:23.997Z,20.80
2018-09-02T14:18:52.125Z,20.70
2018-09-02T14:21:20.498Z,20.70
2018-09-02T14:23:48.624Z,20.70
2018-09-02T14:26:17.259Z,20.60
2018-09-02T14:28:45.629Z,20.60
2018-09-02T14:31:13.781Z,20.70
2018-09-02T14:33:41.964Z,20.70
2018-09-02T14:36:10.130Z,20.70
2018-09-02T14:38:38.416Z,20.70
2018-09-02T14:41:06.723Z,20.70
2018-09-02T14:43:34.898Z,20.80
2018-09-02T14:46:03.046Z,20.80
2018-09-02T14:48:31.247Z,20.70
2018-09-02T14:50:59.435Z,20.70
2018-09-02T14:53:27.583Z,20.70
2018-09-02T14:55:55.836Z,20.60
2018-09-02T14:58:23.987Z,20.60
2018-09-02T15:00:52.117Z,20.60
2018-09-02T15:03:20.267Z,20.70
2018-09-02T15:05:48.450Z,20.70
2018-09-02T15:08:16.748Z,20.60
2018-09-02T15:10:44.878Z,20.60
2018-09-02T15:13:13.023Z,20.60
2018-09-02T15:15:41.178Z,20.60
2018-09-02T15:18:09.316Z,20.50
2018-09-02T15:20:37.451Z,20.40
2018-09-02T15:23:09.739Z,20.20
2018-09-02T15:25:37.871Z,20.20
2018-09-02T15:28:06.100Z,20.00
2018-09-02T15:30:34.318Z,19.90
2018-09-02T15:33:02.459Z,19.80
2018-09-02T15:35:30.659Z,19.70
2018-09-02T15:37:59.986Z,19.60
2018-09-02T15:40:28.143Z,19.40
2018-09-02T15:42:56.309Z,19.30
2018-09-02T15:45:24.446Z,19.30
2018-09-02T15:47:52.586Z,19.20
2018-09-02T15:50:20.724Z,19.10
2018-09-02T15:52:49.164Z,19.10
2018-09-02T15:55:17.283Z,18.90
2018-09-02T15:57:45.433Z,18.90
2018-09-02T16:00:13.587Z,18.80
2018-09-02T16:02:41.793Z,18.70
2018-09-02T16:05:10.436Z,18.80
2018-09-02T16:07:38.667Z,18.80
2018-09-02T16:10:06.879Z,18.80
2018-09-02T16:12:35.013Z,18.70
2018-09-02T16:15:03.135Z,18.50
2018-09-02T16:17:31.286Z,18.50
2018-09-02T16:19:59.516Z,18.50
2018-09-02T16:22:27.622Z,18.40
2018-09-02T16:24:57.823Z,18.30
2018-09-02T16:27:25.969Z,18.40
2018-09-02T16:29:54.167Z,18.40
2018-09-02T16:32:22.351Z,18.50
2018-09-02T16:34:51.146Z,18.50
2018-09-02T16:37:19.289Z,18.60
2018-09-02T16:39:54.022Z,18.70
2018-09-02T16:42:22.260Z,18.70
2018-09-02T16:44:50.431Z,18.80
2018-09-02T16:47:18.614Z,18.80
2018-09-02T16:49:46.732Z,18.90
2018-09-02T16:52:14.862Z,18.80
2018-09-02T16:54:43.679Z,18.80
2018-09-02T16:57:11.831Z,18.80
2018-09-02T16:59:40.015Z,18.80
2018-09-02T17:02:08.152Z,18.70
2018-09-02T17:04:37.946Z,18.70
2018-09-02T17:07:06.087Z,18.60
2018-09-02T17:09:34.231Z,18.50
2018-09-02T17:12:02.464Z,18.50
2018-09-02T17:14:30.564Z,18.50
2018-09-02T17:16:58.714Z,18.50
2018-09-02T17:19:30.010Z,18.60
2018-09-02T17:21:58.176Z,18.70
2018-09-02T17:24:26.311Z,18.70
2018-09-02T17:26:54.459Z,18.70
2018-09-02T17:29:23.174Z,18.70
2018-09-02T17:31:51.382Z,18.70
2018-09-02T17:34:19.592Z,18.70
2018-09-02T17:36:47.711Z,18.70
2018-09-02T17:39:15.852Z,18.70
2018-09-02T17:41:44.050Z,18.70
2018-09-02T17:44:12.386Z,18.70
2018-09-02T17:46:40.511Z,18.60
2018-09-02T17:49:08.647Z,18.50
2018-09-02T17:51:36.826Z,18.50
2018-09-02T17:54:04.973Z,18.50
2018-09-02T17:56:33.115Z,18.40
2018-09-02T17:59:01.267Z,18.40
2018-09-02T18:01:29.404Z,18.40
2018-09-02T18:03:57.574Z,18.30
2018-09-02T18:06:25.776Z,18.40
2018-09-02T18:08:53.911Z,18.30
2018-09-02T18:11:22.053Z,18.30
2018-09-02T18:13:50.175Z,18.30
2018-09-02T18:16:18.329Z,18.30
2018-09-02T18:18:46.472Z,18.20
2018-09-02T18:21:14.595Z,18.20
2018-09-02T18:23:42.722Z,18.20
2018-09-02T18:26:10.854Z,18.20
2018-09-02T18:28:42.080Z,18.10
2018-09-02T18:31:10.262Z,18.10
2018-09-02T18:33:38.451Z,18.10
2018-09-02T18:36:06.579Z,18.00
2018-09-02T18:38:34.721Z,18.00
2018-09-02T18:41:02.898Z,18.00
2018-09-02T18:43:31.080Z,18.00
2018-09-02T18:45:59.413Z,18.00
2018-09-02T18:48:27.544Z,18.00
2018-09-02T18:50:55.670Z,17.90
2018-09-02T18:53:23.918Z,17.90
2018-09-02T18:55:52.482Z,17.90
2018-09-02T18:58:20.934Z,17.90
2018-09-02T19:00:49.078Z,18.00
2018-09-02T19:03:17.262Z,18.00
2018-09-02T19:05:46.355Z,18.00
2018-09-02T19:08:14.796Z,18.00
2018-09-02T19:10:44.046Z,18.00
2018-09-02T19:13:12.182Z,17.90
2018-09-02T19:15:46.467Z,17.90
2018-09-02T19:18:14.603Z,17.90
2018-09-02T19:20:42.804Z,17.80
2018-09-02T19:23:10.918Z,17.80
2018-09-02T19:25:39.275Z,17.80
2018-09-02T19:28:07.634Z,17.80
2018-09-02T19:30:35.800Z,17.80
2018-09-02T19:33:03.927Z,17.70
2018-09-02T19:35:32.073Z,17.70
2018-09-02T19:38:00.208Z,17.60
2018-09-02T19:40:28.412Z,17.60
2018-09-02T19:42:56.540Z,17.60
2018-09-02T19:45:24.683Z,17.60
2018-09-02T19:47:52.927Z,17.60
2018-09-02T19:50:21.099Z,17.50
2018-09-02T19:52:49.252Z,17.50
2018-09-02T19:55:17.385Z,17.50
2018-09-02T19:57:45.595Z,17.50
2018-09-02T20:00:14.221Z,17.50
2018-09-02T20:02:42.419Z,17.50
2018-09-02T20:05:10.679Z,17.50
2018-09-02T20:07:38.883Z,17.50
2018-09-02T20:10:07.051Z,17.50
2018-09-02T20:12:35.192Z,17.40
2018-09-02T20:15:03.330Z,17.40
2018-09-02T20:17:31.476Z,17.40
2018-09-02T20:19:59.667Z,17.40
2018-09-02T20:22:27.880Z,17.40
2018-09-02T20:24:56.079Z,17.30
2018-09-02T20:27:24.206Z,17.30
2018-09-02T20:29:52.402Z,17.30
2018-09-02T20:32:20.543Z,17.20
2018-09-02T20:34:48.802Z,17.10
2018-09-02T20:37:16.930Z,17.10
2018-09-02T20:39:45.171Z,17.10
2018-09-02T20:42:13.352Z,17.00
2018-09-02T20:44:41.504Z,17.00
2018-09-02T20:47:10.768Z,16.90
2018-09-02T20:49:38.903Z,16.90
2018-09-02T20:52:07.081Z,16.90
2018-09-02T20:54:35.340Z,16.90
2018-09-02T20:57:03.506Z,16.90
2018-09-02T20:59:35.602Z,16.80
2018-09-02T21:02:03.743Z,16.80
2018-09-02T21:04:31.882Z,16.70
2018-09-02T21:07:00.137Z,16.70
2018-09-02T21:09:28.261Z,16.70
2018-09-02T21:11:56.486Z,16.70
2018-09-02T21:14:24.675Z,16.70
2018-09-02T21:16:52.899Z,16.70
2018-09-02T21:19:21.084Z,16.70
2018-09-02T21:21:49.220Z,16.60
2018-09-02T21:24:17.343Z,16.60
2018-09-02T21:26:45.473Z,16.60
2018-09-02T21:29:13.616Z,16.50
2018-09-02T21:31:41.785Z,16.50
2018-09-02T21:34:09.907Z,16.50
2018-09-02T21:36:38.065Z,16.40
2018-09-02T21:39:07.452Z,16.40
2018-09-02T21:41:35.584Z,16.40
2018-09-02T21:44:03.728Z,16.40
2018-09-02T21:46:31.863Z,16.40
2018-09-02T21:49:00.183Z,16.30
2018-09-02T21:51:28.330Z,16.30
2018-09-02T21:53:56.473Z,16.40
2018-09-02T21:56:24.603Z,16.30
2018-09-02T21:58:52.744Z,16.30
2018-09-02T22:01:20.903Z,16.30
2018-09-02T22:03:49.117Z,16.30
2018-09-02T22:06:17.258Z,16.30
2018-09-02T22:08:45.396Z,16.30
2018-09-02T22:11:13.546Z,16.30
2018-09-02T22:13:41.698Z,16.20
2018-09-02T22:16:09.839Z,16.10
2018-09-02T22:18:37.971Z,16.10
2018-09-02T22:21:06.121Z,16.10
2018-09-02T22:23:34.252Z,16.10
2018-09-02T22:26:02.395Z,16.10
2018-09-02T22:28:30.547Z,16.10
2018-09-02T22:30:58.755Z,16.10
2018-09-02T22:33:26.919Z,16.20
2018-09-02T22:35:55.155Z,16.10
2018-09-02T22:38:23.291Z,16.10
2018-09-02T22:40:51.566Z,16.00
2018-09-02T22:43:19.727Z,16.00
2018-09-02T22:45:47.925Z,15.90
2018-09-02T22:48:16.102Z,15.90
2018-09-02T22:50:44.244Z,15.90
2018-09-02T22:53:12.432Z,15.90
2018-09-02T22:55:40.789Z,15.90
2018-09-02T22:58:08.920Z,16.00
2018-09-02T23:00:37.063Z,16.00
2018-09-02T23:03:05.209Z,16.00
2018-09-02T23:05:33.352Z,16.00
2018-09-02T23:08:01.516Z,15.90
2018-09-02T23:10:29.882Z,15.90
2018-09-02T23:12:58.148Z,15.90
2018-09-02T23:15:26.297Z,15.90
2018-09-02T23:17:54.443Z,15.90
2018-09-02T23:20:22.575Z,15.90
2018-09-02T23:22:50.723Z,15.90
2018-09-02T23:25:18.883Z,15.80
2018-09-02T23:27:47.122Z,15.80
2018-09-02T23:30:15.310Z,15.80
2018-09-02T23:32:43.530Z,15.80
2018-09-02T23:35:11.668Z,15.80
2018-09-02T23:37:39.794Z,15.90
2018-09-02T23:40:07.939Z,15.80
2018-09-02T23:42:36.119Z,15.80
2018-09-02T23:45:04.340Z,15.80
2018-09-02T23:47:32.519Z,15.80
2018-09-02T23:50:00.820Z,15.70
2018-09-02T23:52:28.960Z,15.60
2018-09-02T23:54:57.139Z,15.60
2018-09-02T23:57:25.437Z,15.50
2018-09-02T23:59:53.565Z,15.40
